sensor_id;sensor_type;location;lat;lon;timestamp;P1;durP1;ratioP1;P2;durP2;ratioP2
49153;SDS011;49455;52.252;9.124;2022-07-30T06:19:21;11.52;;;9.45;;
49153;SDS011;49455;52.252;9.124;2022-07-30T06:24:22;12.53;;;9.47;;
49153;SDS011;49455;52.252;9.124;2022-07-30T06:29:43;13.93;;;10.15;;
49153;SDS011;49455;52.252;9.124;2022-07-30T06:34:44;11.40;;;9.75;;
49153;SDS011;49455;52.252;9.124;2022-07-30T06:39:44;11.20;;;8.75;;
49153;SDS011;49455;52.252;9.124;2022-07-30T06:45:11;13.65;;;10.27;;
49153;SDS011;49455;52.252;9.124;2022-07-30T06:50:30;11.93;;;9.38;;
49153;SDS011;49455;52.252;9.124;2022-07-30T06:55:31;12.23;;;8.53;;
49153;SDS011;49455;52.252;9.124;2022-07-30T07:00:35;9.63;;;8.63;;
49153;SDS011;49455;52.252;9.124;2022-07-30T07:05:41;12.82;;;7.95;;
49153;SDS011;49455;52.252;9.124;2022-07-30T07:10:41;11.82;;;9.05;;
49153;SDS011;49455;52.252;9.124;2022-07-30T07:16:02;13.85;;;9.13;;
49153;SDS011;49455;52.252;9.124;2022-07-30T07:26:04;10.55;;;7.85;;
49153;SDS011;49455;52.252;9.124;2022-07-30T07:31:09;15.53;;;8.20;;
49153;SDS011;49455;52.252;9.124;2022-07-30T07:36:09;10.93;;;7.80;;
49153;SDS011;49455;52.252;9.124;2022-07-30T07:41:10;11.10;;;8.77;;
49153;SDS011;49455;52.252;9.124;2022-07-30T07:46:10;9.88;;;7.85;;
49153;SDS011;49455;52.252;9.124;2022-07-30T07:51:11;9.52;;;7.20;;
49153;SDS011;49455;52.252;9.124;2022-07-30T07:56:11;8.55;;;6.90;;
49153;SDS011;49455;52.252;9.124;2022-07-30T08:01:12;8.63;;;7.67;;
49153;SDS011;49455;52.252;9.124;2022-07-30T08:06:51;10.75;;;7.70;;
49153;SDS011;49455;52.252;9.124;2022-07-30T08:12:18;7.70;;;6.35;;
49153;SDS011;49455;52.252;9.124;2022-07-30T08:17:40;9.88;;;7.45;;
49153;SDS011;49455;52.252;9.124;2022-07-30T08:22:46;8.85;;;7.18;;
49153;SDS011;49455;52.252;9.124;2022-07-30T08:27:48;9.98;;;7.20;;
49153;SDS011;49455;52.252;9.124;2022-07-30T08:32:48;8.93;;;6.73;;
49153;SDS011;49455;52.252;9.124;2022-07-30T08:37:49;10.47;;;7.80;;
49153;SDS011;49455;52.252;9.124;2022-07-30T08:47:52;9.43;;;6.47;;
49153;SDS011;49455;52.252;9.124;2022-07-30T08:53:00;36.25;;;18.98;;
49153;SDS011;49455;52.252;9.124;2022-07-30T08:58:01;12.30;;;8.43;;
49153;SDS011;49455;52.252;9.124;2022-07-30T09:03:04;9.63;;;7.10;;
49153;SDS011;49455;52.252;9.124;2022-07-30T09:08:04;9.37;;;7.27;;
49153;SDS011;49455;52.252;9.124;2022-07-30T09:13:05;15.70;;;8.20;;
49153;SDS011;49455;52.252;9.124;2022-07-30T09:18:30;12.07;;;6.78;;
49153;SDS011;49455;52.252;9.124;2022-07-30T09:23:38;10.68;;;7.70;;
49153;SDS011;49455;52.252;9.124;2022-07-30T09:29:14;9.45;;;8.30;;
49153;SDS011;49455;52.252;9.124;2022-07-30T09:34:38;12.35;;;8.30;;
49153;SDS011;49455;52.252;9.124;2022-07-30T09:39:39;12.27;;;7.78;;
49153;SDS011;49455;52.252;9.124;2022-07-30T09:45:04;10.48;;;7.72;;
49153;SDS011;49455;52.252;9.124;2022-07-30T09:50:12;9.95;;;7.82;;
49153;SDS011;49455;52.252;9.124;2022-07-30T09:55:31;10.60;;;7.80;;
49153;SDS011;49455;52.252;9.124;2022-07-30T10:00:34;12.70;;;8.32;;
49153;SDS011;49455;52.252;9.124;2022-07-30T10:10:54;12.32;;;8.30;;
49153;SDS011;49455;52.252;9.124;2022-07-30T10:15:55;12.03;;;8.30;;
49153;SDS011;49455;52.252;9.124;2022-07-30T10:20:55;12.07;;;8.93;;
49153;SDS011;49455;52.252;9.124;2022-07-30T10:26:23;12.88;;;8.93;;
49153;SDS011;49455;52.252;9.124;2022-07-30T10:31:47;10.50;;;8.75;;
49153;SDS011;49455;52.252;9.124;2022-07-30T10:36:49;12.30;;;9.98;;
49153;SDS011;49455;52.252;9.124;2022-07-30T10:47:07;9.75;;;8.75;;
49153;SDS011;49455;52.252;9.124;2022-07-30T10:52:11;12.45;;;8.00;;
49153;SDS011;49455;52.252;9.124;2022-07-30T10:57:19;10.13;;;8.47;;
49153;SDS011;49455;52.252;9.124;2022-07-30T11:02:21;11.82;;;8.50;;
49153;SDS011;49455;52.252;9.124;2022-07-30T11:33:40;8.40;;;6.75;;
49153;SDS011;49455;52.252;9.124;2022-07-30T11:38:53;11.67;;;6.57;;
49153;SDS011;49455;52.252;9.124;2022-07-30T11:44:40;9.63;;;5.82;;
49153;SDS011;49455;52.252;9.124;2022-07-30T11:49:25;12.23;;;6.32;;
49153;SDS011;49455;52.252;9.124;2022-07-30T11:54:49;9.13;;;6.93;;
49153;SDS011;49455;52.252;9.124;2022-07-30T11:59:51;11.18;;;6.25;;
49153;SDS011;49455;52.252;9.124;2022-07-30T12:04:53;7.88;;;5.95;;
49153;SDS011;49455;52.252;9.124;2022-07-30T12:10:10;12.27;;;5.63;;
49153;SDS011;49455;52.252;9.124;2022-07-30T12:15:26;9.57;;;5.20;;
49153;SDS011;49455;52.252;9.124;2022-07-30T12:20:30;6.25;;;5.65;;
49153;SDS011;49455;52.252;9.124;2022-07-30T12:25:31;8.67;;;5.20;;
49153;SDS011;49455;52.252;9.124;2022-07-30T12:30:31;10.27;;;5.90;;
49153;SDS011;49455;52.252;9.124;2022-07-30T12:35:42;7.13;;;5.30;;
49153;SDS011;49455;52.252;9.124;2022-07-30T12:40:52;7.28;;;5.68;;
49153;SDS011;49455;52.252;9.124;2022-07-30T12:46:03;7.25;;;4.90;;
49153;SDS011;49455;52.252;9.124;2022-07-30T12:51:08;6.03;;;4.50;;
49153;SDS011;49455;52.252;9.124;2022-07-30T12:56:13;9.80;;;5.03;;
49153;SDS011;49455;52.252;9.124;2022-07-30T13:01:15;6.95;;;4.63;;
49153;SDS011;49455;52.252;9.124;2022-07-30T13:06:17;6.53;;;4.97;;
49153;SDS011;49455;52.252;9.124;2022-07-30T13:11:20;4.82;;;4.15;;
49153;SDS011;49455;52.252;9.124;2022-07-30T13:16:23;8.65;;;4.90;;
49153;SDS011;49455;52.252;9.124;2022-07-30T13:21:23;9.80;;;4.83;;
49153;SDS011;49455;52.252;9.124;2022-07-30T13:26:27;7.47;;;4.77;;
49153;SDS011;49455;52.252;9.124;2022-07-30T13:31:27;7.82;;;5.00;;
49153;SDS011;49455;52.252;9.124;2022-07-30T13:36:28;7.37;;;5.20;;
49153;SDS011;49455;52.252;9.124;2022-07-30T13:41:28;7.03;;;4.60;;
49153;SDS011;49455;52.252;9.124;2022-07-30T13:46:29;7.37;;;5.03;;
49153;SDS011;49455;52.252;9.124;2022-07-30T13:51:29;6.10;;;5.23;;
49153;SDS011;49455;52.252;9.124;2022-07-30T13:56:30;6.20;;;5.60;;
49153;SDS011;49455;52.252;9.124;2022-07-30T14:01:30;5.40;;;4.73;;
49153;SDS011;49455;52.252;9.124;2022-07-30T14:06:31;8.67;;;5.87;;
49153;SDS011;49455;52.252;9.124;2022-07-30T14:11:31;6.13;;;5.10;;
49153;SDS011;49455;52.252;9.124;2022-07-30T14:16:31;8.77;;;5.43;;
49153;SDS011;49455;52.252;9.124;2022-07-30T14:21:32;5.23;;;4.73;;
49153;SDS011;49455;52.252;9.124;2022-07-30T14:26:32;8.73;;;5.47;;
49153;SDS011;49455;52.252;9.124;2022-07-30T14:31:33;8.80;;;5.83;;
49153;SDS011;49455;52.252;9.124;2022-07-30T14:36:34;8.68;;;5.55;;
49153;SDS011;49455;52.252;9.124;2022-07-30T14:41:35;6.18;;;5.50;;
49153;SDS011;49455;52.252;9.124;2022-07-30T14:46:35;7.40;;;5.00;;
49153;SDS011;49455;52.252;9.124;2022-07-30T14:51:36;5.27;;;4.70;;
49153;SDS011;49455;52.252;9.124;2022-07-30T14:56:37;7.80;;;4.87;;
49153;SDS011;49455;52.252;9.124;2022-07-30T15:01:37;7.18;;;4.70;;
49153;SDS011;49455;52.252;9.124;2022-07-30T15:06:38;5.67;;;5.00;;
49153;SDS011;49455;52.252;9.124;2022-07-30T15:11:39;5.53;;;4.60;;
49153;SDS011;49455;52.252;9.124;2022-07-30T15:16:39;6.53;;;4.40;;
49153;SDS011;49455;52.252;9.124;2022-07-30T15:21:40;7.90;;;4.90;;
49153;SDS011;49455;52.252;9.124;2022-07-30T15:26:40;7.27;;;4.87;;
49153;SDS011;49455;52.252;9.124;2022-07-30T15:31:41;7.97;;;4.67;;
49153;SDS011;49455;52.252;9.124;2022-07-30T15:36:41;5.90;;;4.77;;
49153;SDS011;49455;52.252;9.124;2022-07-30T15:41:41;7.37;;;4.77;;
49153;SDS011;49455;52.252;9.124;2022-07-30T15:46:42;7.83;;;5.07;;
49153;SDS011;49455;52.252;9.124;2022-07-30T15:51:42;7.40;;;4.30;;
49153;SDS011;49455;52.252;9.124;2022-07-30T15:56:43;4.93;;;4.17;;
49153;SDS011;49455;52.252;9.124;2022-07-30T16:01:44;8.60;;;4.88;;
49153;SDS011;49455;52.252;9.124;2022-07-30T16:06:48;10.07;;;4.75;;
49153;SDS011;49455;52.252;9.124;2022-07-30T16:11:49;5.47;;;4.13;;
49153;SDS011;49455;52.252;9.124;2022-07-30T16:16:50;8.23;;;5.13;;
49153;SDS011;49455;52.252;9.124;2022-07-30T16:21:50;7.53;;;5.00;;
49153;SDS011;49455;52.252;9.124;2022-07-30T16:26:51;6.50;;;4.88;;
49153;SDS011;49455;52.252;9.124;2022-07-30T16:31:51;7.10;;;4.90;;
49153;SDS011;49455;52.252;9.124;2022-07-30T16:36:52;7.33;;;5.23;;
49153;SDS011;49455;52.252;9.124;2022-07-30T16:41:52;9.10;;;5.90;;
49153;SDS011;49455;52.252;9.124;2022-07-30T16:46:53;9.40;;;4.97;;
49153;SDS011;49455;52.252;9.124;2022-07-30T16:51:53;7.57;;;4.80;;
49153;SDS011;49455;52.252;9.124;2022-07-30T16:56:54;10.27;;;5.27;;
49153;SDS011;49455;52.252;9.124;2022-07-30T17:01:54;13.17;;;5.43;;
49153;SDS011;49455;52.252;9.124;2022-07-30T17:06:55;6.60;;;5.10;;
49153;SDS011;49455;52.252;9.124;2022-07-30T17:11:55;4.93;;;4.33;;
49153;SDS011;49455;52.252;9.124;2022-07-30T17:16:56;8.03;;;4.87;;
49153;SDS011;49455;52.252;9.124;2022-07-30T17:21:56;8.37;;;4.67;;
49153;SDS011;49455;52.252;9.124;2022-07-30T17:26:57;5.27;;;4.40;;
49153;SDS011;49455;52.252;9.124;2022-07-30T17:31:57;5.33;;;4.13;;
49153;SDS011;49455;52.252;9.124;2022-07-30T17:36:58;8.10;;;4.30;;
49153;SDS011;49455;52.252;9.124;2022-07-30T17:41:58;6.80;;;3.97;;
49153;SDS011;49455;52.252;9.124;2022-07-30T17:46:58;4.53;;;4.03;;
49153;SDS011;49455;52.252;9.124;2022-07-30T17:51:59;7.30;;;4.53;;
49153;SDS011;49455;52.252;9.124;2022-07-30T17:56:59;6.63;;;4.23;;
49153;SDS011;49455;52.252;9.124;2022-07-30T18:02:00;6.97;;;4.40;;
49153;SDS011;49455;52.252;9.124;2022-07-30T18:07:01;8.87;;;4.73;;
49153;SDS011;49455;52.252;9.124;2022-07-30T18:12:02;6.38;;;3.97;;
49153;SDS011;49455;52.252;9.124;2022-07-30T18:17:03;7.80;;;3.93;;
49153;SDS011;49455;52.252;9.124;2022-07-30T18:22:04;8.55;;;3.92;;
49153;SDS011;49455;52.252;9.124;2022-07-30T18:27:04;7.37;;;4.07;;
49153;SDS011;49455;52.252;9.124;2022-07-30T18:32:04;7.90;;;4.17;;
49153;SDS011;49455;52.252;9.124;2022-07-30T18:37:05;6.57;;;3.87;;
49153;SDS011;49455;52.252;9.124;2022-07-30T18:42:06;5.37;;;3.80;;
49153;SDS011;49455;52.252;9.124;2022-07-30T18:47:06;6.27;;;3.63;;
49153;SDS011;49455;52.252;9.124;2022-07-30T18:52:07;7.07;;;3.73;;
49153;SDS011;49455;52.252;9.124;2022-07-30T18:57:07;5.33;;;4.83;;
49153;SDS011;49455;52.252;9.124;2022-07-30T19:02:08;8.60;;;5.00;;
49153;SDS011;49455;52.252;9.124;2022-07-30T19:07:08;6.40;;;4.43;;
49153;SDS011;49455;52.252;9.124;2022-07-30T19:12:08;9.67;;;4.93;;
49153;SDS011;49455;52.252;9.124;2022-07-30T19:17:09;8.50;;;4.83;;
49153;SDS011;49455;52.252;9.124;2022-07-30T19:22:10;6.30;;;4.50;;
49153;SDS011;49455;52.252;9.124;2022-07-30T19:27:10;6.93;;;4.47;;
49153;SDS011;49455;52.252;9.124;2022-07-30T19:32:11;9.87;;;5.03;;
49153;SDS011;49455;52.252;9.124;2022-07-30T19:37:11;5.10;;;4.40;;
49153;SDS011;49455;52.252;9.124;2022-07-30T19:42:11;5.47;;;4.40;;
49153;SDS011;49455;52.252;9.124;2022-07-30T19:47:12;5.60;;;3.90;;
49153;SDS011;49455;52.252;9.124;2022-07-30T19:52:12;8.70;;;4.13;;
49153;SDS011;49455;52.252;9.124;2022-07-30T19:57:13;5.73;;;4.63;;
49153;SDS011;49455;52.252;9.124;2022-07-30T20:02:13;7.13;;;4.50;;
49153;SDS011;49455;52.252;9.124;2022-07-30T20:07:14;5.30;;;3.73;;
49153;SDS011;49455;52.252;9.124;2022-07-30T20:12:14;5.80;;;3.67;;
49153;SDS011;49455;52.252;9.124;2022-07-30T20:17:15;7.37;;;4.10;;
49153;SDS011;49455;52.252;9.124;2022-07-30T20:22:15;10.37;;;4.60;;
49153;SDS011;49455;52.252;9.124;2022-07-30T20:27:16;8.43;;;4.70;;
49153;SDS011;49455;52.252;9.124;2022-07-30T20:32:16;10.53;;;5.80;;
49153;SDS011;49455;52.252;9.124;2022-07-30T20:37:17;10.00;;;6.00;;
49153;SDS011;49455;52.252;9.124;2022-07-30T20:42:17;11.37;;;7.00;;
49153;SDS011;49455;52.252;9.124;2022-07-30T20:47:18;8.37;;;6.80;;
49153;SDS011;49455;52.252;9.124;2022-07-30T20:52:18;9.50;;;6.70;;
49153;SDS011;49455;52.252;9.124;2022-07-30T20:57:19;8.93;;;7.37;;
49153;SDS011;49455;52.252;9.124;2022-07-30T21:02:19;13.17;;;7.83;;
49153;SDS011;49455;52.252;9.124;2022-07-30T21:07:20;10.53;;;7.57;;
49153;SDS011;49455;52.252;9.124;2022-07-30T21:12:20;14.13;;;7.33;;
49153;SDS011;49455;52.252;9.124;2022-07-30T21:17:21;10.13;;;7.33;;
49153;SDS011;49455;52.252;9.124;2022-07-30T21:22:21;12.07;;;7.30;;
49153;SDS011;49455;52.252;9.124;2022-07-30T21:27:21;16.67;;;7.43;;
49153;SDS011;49455;52.252;9.124;2022-07-30T21:32:22;12.63;;;7.23;;
49153;SDS011;49455;52.252;9.124;2022-07-30T21:37:22;16.87;;;7.47;;
49153;SDS011;49455;52.252;9.124;2022-07-30T21:42:23;7.93;;;6.53;;
49153;SDS011;49455;52.252;9.124;2022-07-30T21:47:23;11.43;;;7.60;;
49153;SDS011;49455;52.252;9.124;2022-07-30T21:52:24;11.20;;;7.23;;
49153;SDS011;49455;52.252;9.124;2022-07-30T21:57:24;11.27;;;7.27;;
49153;SDS011;49455;52.252;9.124;2022-07-30T22:02:25;11.07;;;6.93;;
49153;SDS011;49455;52.252;9.124;2022-07-30T22:07:26;12.50;;;7.70;;
49153;SDS011;49455;52.252;9.124;2022-07-30T22:12:26;10.60;;;7.40;;
49153;SDS011;49455;52.252;9.124;2022-07-30T22:17:27;8.43;;;7.33;;
49153;SDS011;49455;52.252;9.124;2022-07-30T22:22:27;11.97;;;8.57;;
49153;SDS011;49455;52.252;9.124;2022-07-30T22:27:28;10.03;;;7.90;;
49153;SDS011;49455;52.252;9.124;2022-07-30T22:32:28;12.90;;;8.23;;
49153;SDS011;49455;52.252;9.124;2022-07-30T22:37:28;14.30;;;9.03;;
49153;SDS011;49455;52.252;9.124;2022-07-30T22:42:29;10.73;;;7.87;;
49153;SDS011;49455;52.252;9.124;2022-07-30T22:47:29;10.30;;;7.57;;
49153;SDS011;49455;52.252;9.124;2022-07-30T22:52:35;15.83;;;9.50;;
49153;SDS011;49455;52.252;9.124;2022-07-30T22:57:36;11.32;;;8.70;;
49153;SDS011;49455;52.252;9.124;2022-07-30T23:02:38;19.77;;;8.83;;
49153;SDS011;49455;52.252;9.124;2022-07-30T23:12:40;14.95;;;9.15;;
49153;SDS011;49455;52.252;9.124;2022-07-30T23:17:42;11.98;;;8.43;;
49153;SDS011;49455;52.252;9.124;2022-07-30T23:22:42;11.07;;;8.00;;
49153;SDS011;49455;52.252;9.124;2022-07-30T23:27:43;10.80;;;7.40;;
49153;SDS011;49455;52.252;9.124;2022-07-30T23:32:43;12.67;;;7.83;;
49153;SDS011;49455;52.252;9.124;2022-07-30T23:37:44;12.20;;;8.30;;
49153;SDS011;49455;52.252;9.124;2022-07-30T23:42:45;13.40;;;9.77;;
49153;SDS011;49455;52.252;9.124;2022-07-30T23:47:46;11.80;;;9.60;;
49153;SDS011;49455;52.252;9.124;2022-07-30T23:52:46;12.37;;;10.20;;
